createdAt,value
2018-05-07T00:01:17.519Z,33.90
2018-05-07T00:03:46.548Z,34.00
2018-05-07T00:06:14.875Z,33.70
2018-05-07T00:08:43.825Z,33.70
2018-05-07T00:11:12.075Z,33.80
2018-05-07T00:13:41.112Z,33.80
2018-05-07T00:16:10.089Z,33.70
2018-05-07T00:18:38.341Z,33.80
2018-05-07T00:21:07.361Z,33.70
2018-05-07T00:23:35.952Z,33.90
2018-05-07T00:26:04.200Z,34.00
2018-05-07T00:28:33.218Z,34.30
2018-05-07T00:31:02.225Z,34.10
2018-05-07T00:33:30.485Z,34.00
2018-05-07T00:35:59.509Z,33.90
2018-05-07T00:38:27.771Z,33.90
2018-05-07T00:40:56.760Z,34.50
2018-05-07T00:43:25.799Z,34.60
2018-05-07T00:45:54.051Z,34.60
2018-05-07T00:48:23.051Z,34.70
2018-05-07T00:50:51.340Z,34.70
2018-05-07T00:53:19.581Z,35.00
2018-05-07T00:55:48.808Z,35.30
2018-05-07T00:58:17.084Z,35.30
2018-05-07T01:00:46.109Z,36.60
2018-05-07T01:03:14.343Z,35.70
2018-05-07T01:05:43.349Z,36.40
2018-05-07T01:08:12.500Z,35.90
2018-05-07T01:10:40.723Z,35.90
2018-05-07T01:13:09.725Z,35.70
2018-05-07T01:15:38.911Z,35.80
2018-05-07T01:18:07.193Z,35.80
2018-05-07T01:20:36.191Z,35.90
2018-05-07T01:23:04.464Z,35.80
2018-05-07T01:25:32.711Z,35.90
2018-05-07T01:28:00.940Z,36.10
2018-05-07T01:30:29.957Z,36.80
2018-05-07T01:32:58.235Z,36.10
2018-05-07T01:35:26.493Z,36.30
2018-05-07T01:37:54.968Z,36.20
2018-05-07T01:40:23.209Z,36.40
2018-05-07T01:42:51.641Z,36.60
2018-05-07T01:45:19.889Z,36.40
2018-05-07T01:47:48.121Z,36.60
2018-05-07T01:50:17.128Z,36.10
2018-05-07T01:52:46.164Z,36.60
2018-05-07T01:55:14.422Z,36.60
2018-05-07T01:57:42.665Z,37.00
2018-05-07T02:00:11.690Z,36.90
2018-05-07T02:02:39.935Z,37.00
2018-05-07T02:05:08.173Z,36.90
2018-05-07T02:07:36.415Z,37.70
2018-05-07T02:10:04.712Z,37.20
2018-05-07T02:12:32.948Z,36.70
2018-05-07T02:15:01.208Z,37.70
2018-05-07T02:17:29.460Z,38.10
2018-05-07T02:19:57.701Z,37.60
2018-05-07T02:22:25.940Z,38.10
2018-05-07T02:24:54.180Z,38.30
2018-05-07T02:27:22.441Z,38.70
2018-05-07T02:29:51.469Z,38.80
2018-05-07T02:32:19.699Z,38.70
2018-05-07T02:34:47.938Z,38.80
2018-05-07T02:37:16.199Z,38.80
2018-05-07T02:39:45.201Z,39.00
2018-05-07T02:42:13.457Z,39.10
2018-05-07T02:44:42.499Z,39.00
2018-05-07T02:47:10.851Z,39.00
2018-05-07T02:49:39.864Z,38.90
2018-05-07T02:52:08.090Z,39.00
2018-05-07T02:54:36.370Z,38.90
2018-05-07T02:57:04.592Z,38.80
2018-05-07T02:59:32.846Z,38.90
2018-05-07T03:02:01.147Z,39.40
2018-05-07T03:04:30.145Z,39.40
2018-05-07T03:06:59.172Z,39.50
2018-05-07T03:09:27.441Z,39.80
2018-05-07T03:11:56.428Z,40.00
2018-05-07T03:14:25.451Z,40.00
2018-05-07T03:16:53.704Z,39.90
2018-05-07T03:19:22.726Z,40.30
2018-05-07T03:21:50.968Z,40.20
2018-05-07T03:24:19.982Z,39.80
2018-05-07T03:26:48.240Z,39.80
2018-05-07T03:29:16.483Z,40.10
2018-05-07T03:31:44.721Z,40.20
2018-05-07T03:34:12.985Z,40.40
2018-05-07T03:36:42.023Z,40.70
2018-05-07T03:39:10.494Z,40.10
2018-05-07T03:41:40.511Z,40.20
2018-05-07T03:44:08.807Z,40.00
2018-05-07T03:46:37.064Z,39.90
2018-05-07T03:49:05.361Z,40.20
2018-05-07T03:51:33.678Z,40.90
2018-05-07T03:54:01.873Z,40.60
2018-05-07T03:56:30.217Z,41.10
2018-05-07T03:58:58.507Z,41.00
2018-05-07T04:01:26.776Z,41.10
2018-05-07T04:03:54.991Z,41.10
2018-05-07T04:06:24.019Z,41.70
2018-05-07T04:08:53.019Z,41.40
2018-05-07T04:11:22.015Z,41.40
2018-05-07T04:13:50.283Z,41.80
2018-05-07T04:16:40.804Z,42.00
2018-05-07T04:19:20.742Z,41.80
2018-05-07T04:22:00.729Z,42.10
2018-05-07T04:24:29.001Z,42.30
2018-05-07T04:26:57.259Z,42.60
2018-05-07T04:29:25.501Z,42.70
2018-05-07T04:31:54.496Z,43.20
2018-05-07T04:34:23.562Z,42.70
2018-05-07T04:36:51.780Z,42.90
2018-05-07T04:39:20.784Z,43.20
2018-05-07T04:41:49.368Z,42.90
2018-05-07T04:44:19.405Z,43.30
2018-05-07T04:46:48.416Z,43.30
2018-05-07T04:49:16.695Z,43.40
2018-05-07T04:51:44.936Z,43.70
2018-05-07T04:54:13.181Z,43.50
2018-05-07T04:56:41.435Z,43.60
2018-05-07T04:59:09.707Z,44.10
2018-05-07T05:01:37.998Z,43.70
2018-05-07T05:04:06.245Z,43.20
2018-05-07T05:06:34.480Z,43.00
2018-05-07T05:09:02.762Z,42.90
2018-05-07T05:11:31.000Z,42.70
2018-05-07T05:13:59.325Z,42.70
2018-05-07T05:16:27.551Z,42.40
2018-05-07T05:18:55.862Z,42.40
2018-05-07T05:21:24.205Z,42.40
2018-05-07T05:23:52.401Z,42.40
2018-05-07T05:26:21.489Z,42.90
2018-05-07T05:28:49.864Z,42.80
2018-05-07T05:31:18.137Z,42.60
2018-05-07T05:33:47.952Z,42.10
2018-05-07T05:36:16.189Z,42.30
2018-05-07T05:38:44.441Z,42.10
2018-05-07T05:41:12.694Z,42.20
2018-05-07T05:43:41.030Z,42.10
2018-05-07T05:46:09.246Z,42.60
2018-05-07T05:48:37.480Z,42.40
2018-05-07T05:51:05.726Z,42.10
2018-05-07T05:53:34.788Z,42.30
2018-05-07T05:56:03.052Z,42.10
2018-05-07T05:58:31.326Z,42.00
2018-05-07T06:00:59.575Z,41.90
2018-05-07T06:03:28.581Z,42.00
2018-05-07T06:05:56.839Z,42.10
2018-05-07T06:08:25.851Z,42.20
2018-05-07T06:10:54.875Z,42.00
2018-05-07T06:13:23.117Z,42.00
2018-05-07T06:15:52.134Z,42.10
2018-05-07T06:18:20.490Z,42.00
2018-05-07T06:20:48.697Z,42.10
2018-05-07T06:23:16.998Z,41.90
2018-05-07T06:25:45.228Z,41.70
2018-05-07T06:28:13.499Z,41.80
2018-05-07T06:30:41.750Z,41.70
2018-05-07T06:33:10.115Z,41.70
2018-05-07T06:35:38.363Z,41.80
2018-05-07T06:38:07.377Z,41.90
2018-05-07T06:40:36.401Z,41.50
2018-05-07T06:43:04.647Z,41.60
2018-05-07T06:45:33.655Z,41.40
2018-05-07T06:48:01.886Z,41.70
2018-05-07T06:50:30.160Z,41.70
2018-05-07T06:52:58.391Z,41.50
2018-05-07T06:55:26.676Z,41.60
2018-05-07T06:57:54.915Z,41.50
2018-05-07T07:00:23.177Z,41.50
2018-05-07T07:02:51.618Z,41.50
2018-05-07T07:05:19.686Z,41.60
2018-05-07T07:07:48.730Z,41.50
2018-05-07T07:10:17.012Z,41.80
2018-05-07T07:12:46.040Z,41.70
2018-05-07T07:15:14.283Z,41.60
2018-05-07T07:17:42.550Z,42.20
2018-05-07T07:20:10.794Z,41.60
2018-05-07T07:22:39.029Z,41.90
2018-05-07T07:25:07.299Z,41.80
2018-05-07T07:27:35.561Z,41.60
2018-05-07T07:30:03.801Z,41.40
2018-05-07T07:32:32.102Z,40.90
2018-05-07T07:35:00.320Z,40.90
2018-05-07T07:37:28.635Z,40.80
2018-05-07T07:39:56.891Z,40.80
2018-05-07T07:42:25.125Z,40.90
2018-05-07T07:44:55.833Z,40.40
2018-05-07T07:47:24.247Z,40.50
2018-05-07T07:49:52.512Z,40.20
2018-05-07T07:52:21.647Z,40.00
2018-05-07T07:54:49.811Z,40.00
2018-05-07T07:57:18.032Z,40.00
2018-05-07T07:59:46.293Z,40.30
2018-05-07T08:02:15.027Z,40.00
2018-05-07T08:04:43.255Z,39.90
2018-05-07T08:07:11.496Z,39.20
2018-05-07T08:09:39.758Z,38.80
2018-05-07T08:12:08.149Z,38.70
2018-05-07T08:14:36.485Z,38.80
2018-05-07T08:17:04.764Z,38.90
2018-05-07T08:19:32.971Z,39.00
2018-05-07T08:22:01.204Z,38.80
2018-05-07T08:24:29.470Z,38.80
2018-05-07T08:26:58.497Z,37.90
2018-05-07T08:29:27.352Z,38.30
2018-05-07T08:31:55.600Z,38.20
2018-05-07T08:34:23.849Z,37.80
2018-05-07T08:36:52.125Z,37.70
2018-05-07T08:39:20.361Z,37.60
2018-05-07T08:41:48.598Z,36.80
2018-05-07T08:44:16.867Z,37.20
2018-05-07T08:46:45.108Z,35.70
2018-05-07T08:49:13.372Z,35.70
2018-05-07T08:51:41.628Z,36.50
2018-05-07T08:54:09.916Z,35.60
2018-05-07T08:56:38.148Z,35.40
2018-05-07T08:59:07.162Z,35.40
2018-05-07T09:01:36.192Z,35.40
2018-05-07T09:04:04.429Z,35.40
2018-05-07T09:06:33.474Z,35.40
2018-05-07T09:09:01.738Z,35.40
2018-05-07T09:11:30.045Z,35.50
2018-05-07T09:13:59.137Z,35.50
2018-05-07T09:16:27.363Z,35.60
2018-05-07T09:18:56.607Z,35.60
2018-05-07T09:21:24.833Z,35.60
2018-05-07T09:23:53.847Z,35.80
2018-05-07T09:26:22.876Z,35.70
2018-05-07T09:28:51.155Z,35.70
2018-05-07T09:31:19.417Z,35.70
2018-05-07T09:33:47.659Z,35.80
2018-05-07T09:36:15.915Z,35.80
2018-05-07T09:38:44.157Z,35.70
2018-05-07T09:41:12.427Z,35.80
2018-05-07T09:43:41.448Z,35.80
2018-05-07T09:46:09.704Z,35.80
2018-05-07T09:48:38.715Z,36.10
2018-05-07T09:51:06.972Z,36.10
2018-05-07T09:53:35.330Z,36.20
2018-05-07T09:56:03.580Z,36.00
2018-05-07T09:58:31.841Z,35.70
2018-05-07T10:01:00.110Z,36.10
2018-05-07T10:03:28.398Z,36.10
2018-05-07T10:05:56.730Z,35.90
2018-05-07T10:08:25.689Z,36.10
2018-05-07T10:10:53.940Z,36.20
2018-05-07T10:13:22.960Z,35.80
2018-05-07T10:15:51.247Z,35.80
2018-05-07T10:18:19.496Z,35.20
2018-05-07T10:20:48.499Z,35.20
2018-05-07T10:23:16.841Z,35.20
2018-05-07T10:25:45.147Z,35.00
2018-05-07T10:28:14.174Z,34.80
2018-05-07T10:30:42.428Z,34.80
2018-05-07T10:33:12.374Z,34.00
2018-05-07T10:35:40.614Z,33.90
2018-05-07T10:38:09.183Z,33.80
2018-05-07T10:40:38.011Z,34.30
2018-05-07T10:43:06.415Z,33.70
2018-05-07T10:45:34.685Z,33.30
2018-05-07T10:48:03.685Z,32.50
2018-05-07T10:50:31.953Z,32.40
2018-05-07T10:53:00.959Z,32.20
2018-05-07T10:55:29.953Z,32.80
2018-05-07T10:57:58.991Z,32.40
2018-05-07T11:00:27.220Z,32.40
2018-05-07T11:02:56.221Z,32.60
2018-05-07T11:05:25.262Z,32.50
2018-05-07T11:07:53.600Z,32.50
2018-05-07T11:10:22.613Z,32.30
2018-05-07T11:12:50.863Z,32.30
2018-05-07T11:15:19.889Z,31.70
2018-05-07T11:17:48.183Z,32.10
2018-05-07T11:20:16.427Z,32.00
2018-05-07T11:22:44.706Z,31.50
2018-05-07T11:25:13.011Z,31.50
2018-05-07T11:27:41.279Z,31.40
2018-05-07T11:30:10.280Z,31.30
2018-05-07T11:32:39.295Z,31.20
2018-05-07T11:35:07.562Z,31.20
2018-05-07T11:37:36.589Z,30.40
2018-05-07T11:40:04.869Z,30.30
2018-05-07T11:42:33.329Z,30.40
2018-05-07T11:45:01.889Z,30.30
2018-05-07T11:47:30.279Z,30.60
2018-05-07T11:49:58.492Z,30.60
2018-05-07T11:52:26.736Z,30.50
2018-05-07T11:54:54.968Z,29.90
2018-05-07T11:57:23.232Z,29.60
2018-05-07T11:59:51.493Z,30.20
2018-05-07T12:02:20.565Z,29.80
2018-05-07T12:04:48.781Z,29.70
2018-05-07T12:07:18.548Z,29.40
2018-05-07T12:09:52.923Z,29.50
2018-05-07T12:12:22.273Z,29.60
2018-05-07T12:14:50.543Z,29.50
2018-05-07T12:17:19.705Z,29.50
2018-05-07T12:19:50.162Z,29.20
2018-05-07T12:22:20.002Z,29.10
2018-05-07T12:24:48.216Z,29.30
2018-05-07T12:27:18.265Z,29.30
2018-05-07T12:29:46.505Z,29.30
2018-05-07T12:32:15.539Z,29.50
2018-05-07T12:34:43.782Z,28.80
2018-05-07T12:37:12.849Z,29.10
2018-05-07T12:39:41.059Z,28.80
2018-05-07T12:42:09.328Z,28.70
2018-05-07T12:44:37.576Z,28.70
2018-05-07T12:47:05.828Z,28.70
2018-05-07T12:49:34.084Z,28.80
2018-05-07T12:52:03.166Z,28.90
2018-05-07T12:54:31.390Z,28.80
2018-05-07T12:56:59.676Z,28.80
2018-05-07T12:59:27.939Z,28.80
2018-05-07T13:01:56.967Z,28.20
2018-05-07T13:04:25.222Z,28.20
2018-05-07T13:06:54.247Z,28.50
2018-05-07T13:09:22.484Z,28.50
2018-05-07T13:11:51.517Z,28.10
2018-05-07T13:14:19.755Z,28.10
2018-05-07T13:16:48.774Z,28.30
2018-05-07T13:19:17.028Z,28.10
2018-05-07T13:21:45.271Z,28.40
2018-05-07T13:24:13.514Z,28.00
2018-05-07T13:26:42.528Z,27.90
2018-05-07T13:29:10.773Z,27.90
2018-05-07T13:31:39.801Z,27.90
2018-05-07T13:34:08.044Z,27.90
2018-05-07T13:36:36.299Z,28.20
2018-05-07T13:39:04.552Z,27.80
2018-05-07T13:41:32.777Z,28.00
2018-05-07T13:44:02.442Z,27.70
2018-05-07T13:46:30.687Z,27.70
2018-05-07T13:48:59.740Z,27.70
2018-05-07T13:51:27.957Z,27.60
2018-05-07T13:53:57.010Z,27.40
2018-05-07T13:56:25.246Z,27.40
2018-05-07T13:58:54.292Z,27.70
2018-05-07T14:01:22.547Z,27.70
2018-05-07T14:03:50.784Z,27.80
2018-05-07T14:06:19.777Z,27.10
2018-05-07T14:08:48.027Z,27.10
2018-05-07T14:11:16.278Z,27.00
2018-05-07T14:13:44.548Z,26.80
2018-05-07T14:16:13.023Z,26.70
2018-05-07T14:18:42.073Z,26.60
2018-05-07T14:21:10.379Z,26.60
2018-05-07T14:23:39.427Z,26.90
2018-05-07T14:26:07.807Z,26.90
2018-05-07T14:28:36.792Z,25.90
2018-05-07T14:31:05.259Z,25.80
2018-05-07T14:33:37.432Z,25.90
2018-05-07T14:36:06.437Z,25.80
2018-05-07T14:38:35.456Z,25.80
2018-05-07T14:41:03.698Z,25.70
2018-05-07T14:43:32.730Z,25.90
2018-05-07T14:46:02.843Z,25.80
2018-05-07T14:48:31.100Z,25.90
2018-05-07T14:51:00.109Z,25.90
2018-05-07T14:53:28.428Z,25.90
2018-05-07T14:55:56.742Z,25.90
2018-05-07T14:58:25.701Z,24.80
2018-05-07T15:00:53.961Z,24.80
2018-05-07T15:03:23.017Z,24.90
2018-05-07T15:05:52.905Z,24.90
2018-05-07T15:08:23.248Z,25.10
2018-05-07T15:10:52.823Z,25.00
2018-05-07T15:13:22.436Z,24.90
2018-05-07T15:15:51.587Z,25.20
2018-05-07T15:18:21.106Z,25.80
2018-05-07T15:20:50.883Z,25.10
2018-05-07T15:23:20.105Z,25.40
2018-05-07T15:25:48.348Z,25.60
2018-05-07T15:28:16.613Z,25.60
2018-05-07T15:30:45.625Z,25.80
2018-05-07T15:33:13.868Z,25.80
2018-05-07T15:35:42.096Z,25.70
2018-05-07T15:38:10.366Z,25.50
2018-05-07T15:40:38.600Z,25.70
2018-05-07T15:43:07.621Z,26.20
2018-05-07T15:45:36.672Z,25.20
2018-05-07T15:48:04.886Z,25.20
2018-05-07T15:50:33.896Z,25.60
2018-05-07T15:53:02.916Z,25.80
2018-05-07T15:55:31.151Z,25.80
2018-05-07T15:57:59.434Z,25.60
2018-05-07T16:00:27.697Z,25.30
2018-05-07T16:02:56.014Z,25.40
2018-05-07T16:05:24.212Z,25.30
2018-05-07T16:07:52.473Z,25.50
2018-05-07T16:10:21.524Z,25.10
2018-05-07T16:12:49.784Z,25.00
2018-05-07T16:15:18.119Z,24.90
2018-05-07T16:17:46.294Z,24.60
2018-05-07T16:20:16.301Z,24.60
2018-05-07T16:22:46.176Z,24.50
2018-05-07T16:25:14.417Z,24.40
2018-05-07T16:27:44.463Z,24.00
2018-05-07T16:30:12.722Z,24.00
2018-05-07T16:32:41.714Z,24.20
2018-05-07T16:35:10.806Z,24.40
2018-05-07T16:37:40.617Z,24.30
2018-05-07T16:40:08.807Z,24.30
2018-05-07T16:42:37.133Z,24.20
2018-05-07T16:45:05.319Z,24.30
2018-05-07T16:47:33.586Z,24.30
2018-05-07T16:50:01.890Z,24.30
2018-05-07T16:52:30.100Z,24.10
2018-05-07T16:54:59.147Z,24.00
2018-05-07T16:57:27.409Z,24.00
2018-05-07T16:59:56.412Z,23.90
2018-05-07T17:02:24.661Z,23.90
2018-05-07T17:04:53.694Z,24.00
2018-05-07T17:07:21.947Z,24.00
2018-05-07T17:09:50.982Z,23.90
2018-05-07T17:12:20.201Z,23.90
2018-05-07T17:14:48.456Z,23.70
2018-05-07T17:17:16.720Z,23.40
2018-05-07T17:19:45.107Z,23.20
2018-05-07T17:22:14.015Z,23.20
2018-05-07T17:24:42.264Z,23.20
2018-05-07T17:27:11.311Z,23.40
2018-05-07T17:29:40.397Z,23.50
2018-05-07T17:32:08.723Z,23.50
2018-05-07T17:34:36.973Z,23.30
2018-05-07T17:37:05.214Z,23.40
2018-05-07T17:39:34.238Z,23.50
2018-05-07T17:42:02.490Z,23.40
2018-05-07T17:44:43.225Z,23.40
2018-05-07T17:47:24.073Z,23.50
2018-05-07T17:49:52.355Z,23.60
2018-05-07T17:52:20.748Z,23.70
2018-05-07T17:54:49.001Z,23.70
2018-05-07T17:57:17.272Z,23.80
2018-05-07T17:59:45.552Z,23.80
2018-05-07T18:02:14.554Z,23.90
2018-05-07T18:04:42.831Z,23.90
2018-05-07T18:07:11.214Z,23.90
2018-05-07T18:09:39.359Z,24.00
2018-05-07T18:12:08.390Z,24.50
2018-05-07T18:14:36.666Z,24.30
2018-05-07T18:17:05.840Z,24.30
2018-05-07T18:19:34.251Z,24.50
2018-05-07T18:22:02.504Z,24.60
2018-05-07T18:24:31.554Z,24.80
2018-05-07T18:27:01.336Z,25.00
2018-05-07T18:29:29.611Z,24.90
2018-05-07T18:31:58.608Z,25.10
2018-05-07T18:34:26.875Z,25.10
2018-05-07T18:36:55.906Z,25.30
2018-05-07T18:39:24.137Z,25.30
2018-05-07T18:41:53.930Z,25.20
2018-05-07T18:44:22.183Z,25.20
2018-05-07T18:46:50.462Z,25.20
2018-05-07T18:49:18.718Z,25.30
2018-05-07T18:51:47.731Z,25.20
2018-05-07T18:54:16.112Z,25.20
2018-05-07T18:56:45.092Z,25.20
2018-05-07T18:59:14.225Z,25.70
2018-05-07T19:01:42.511Z,25.10
2018-05-07T19:04:10.831Z,25.10
2018-05-07T19:06:39.069Z,25.10
2018-05-07T19:09:07.336Z,25.10
2018-05-07T19:11:35.596Z,25.10
2018-05-07T19:14:04.637Z,25.00
2018-05-07T19:16:32.873Z,25.00
2018-05-07T19:19:01.157Z,25.00
2018-05-07T19:21:30.198Z,24.90
2018-05-07T19:23:58.487Z,24.90
2018-05-07T19:26:26.897Z,24.90
2018-05-07T19:28:56.655Z,24.90
2018-05-07T19:31:24.933Z,24.90
2018-05-07T19:33:53.224Z,24.90
2018-05-07T19:36:21.464Z,25.00
2018-05-07T19:38:50.502Z,25.40
2018-05-07T19:41:18.771Z,25.30
2018-05-07T19:43:47.768Z,25.50
2018-05-07T19:46:16.045Z,25.50
2018-05-07T19:48:44.367Z,25.50
2018-05-07T19:51:12.578Z,25.60
2018-05-07T19:53:41.610Z,25.80
2018-05-07T19:56:09.906Z,25.70
2018-05-07T19:58:38.169Z,25.80
2018-05-07T20:01:06.438Z,25.70
2018-05-07T20:03:34.692Z,25.70
2018-05-07T20:06:03.710Z,26.00
2018-05-07T20:08:32.012Z,25.90
2018-05-07T20:11:00.265Z,25.90
2018-05-07T20:13:28.493Z,25.80
2018-05-07T20:15:56.785Z,25.90
2018-05-07T20:18:25.051Z,25.90
2018-05-07T20:20:53.338Z,26.10
2018-05-07T20:23:21.617Z,26.10
2018-05-07T20:25:50.037Z,26.10
2018-05-07T20:28:18.272Z,26.20
2018-05-07T20:30:46.540Z,26.20
2018-05-07T20:33:14.899Z,26.10
2018-05-07T20:35:43.097Z,26.10
2018-05-07T20:38:11.425Z,26.00
2018-05-07T20:40:39.696Z,26.00
2018-05-07T20:43:07.951Z,25.90
2018-05-07T20:45:36.238Z,25.80
2018-05-07T20:48:04.499Z,26.00
2018-05-07T20:50:32.743Z,26.00
2018-05-07T20:53:01.781Z,26.00
2018-05-07T20:55:30.089Z,26.00
2018-05-07T20:57:58.284Z,26.00
2018-05-07T21:00:26.549Z,26.10
2018-05-07T21:02:54.817Z,26.00
2018-05-07T21:05:23.060Z,26.00
2018-05-07T21:07:51.318Z,26.10
2018-05-07T21:10:20.340Z,26.40
2018-05-07T21:12:48.586Z,26.30
2018-05-07T21:15:16.847Z,26.50
2018-05-07T21:17:45.100Z,26.60
2018-05-07T21:20:14.204Z,26.50
2018-05-07T21:22:42.458Z,26.70
2018-05-07T21:25:12.152Z,26.70
2018-05-07T21:27:41.174Z,26.90
2018-05-07T21:30:10.294Z,27.10
2018-05-07T21:32:38.549Z,27.10
2018-05-07T21:35:07.548Z,27.00
2018-05-07T21:37:36.578Z,27.10
2018-05-07T21:40:04.816Z,27.20
2018-05-07T21:42:33.846Z,27.20
2018-05-07T21:45:02.101Z,27.20
2018-05-07T21:47:30.400Z,27.40
2018-05-07T21:49:58.643Z,27.30
2018-05-07T21:52:27.640Z,27.20
2018-05-07T21:54:56.683Z,27.20
2018-05-07T21:57:24.915Z,27.20
2018-05-07T21:59:53.193Z,27.30
2018-05-07T22:02:21.415Z,27.80
2018-05-07T22:04:49.713Z,27.20
2018-05-07T22:07:17.960Z,27.40
2018-05-07T22:09:46.979Z,27.40
2018-05-07T22:12:15.290Z,27.40
2018-05-07T22:14:43.467Z,27.90
2018-05-07T22:17:11.718Z,29.00
2018-05-07T22:19:39.976Z,28.80
2018-05-07T22:22:08.225Z,29.00
2018-05-07T22:24:37.987Z,29.50
2018-05-07T22:27:06.259Z,29.50
2018-05-07T22:29:35.245Z,29.70
2018-05-07T22:32:04.346Z,29.70
2018-05-07T22:34:32.490Z,29.70
2018-05-07T22:37:00.745Z,29.80
2018-05-07T22:39:28.999Z,29.70
2018-05-07T22:41:57.271Z,29.70
2018-05-07T22:44:25.546Z,29.70
2018-05-07T22:46:53.894Z,29.80
2018-05-07T22:49:22.136Z,30.00
2018-05-07T22:51:50.376Z,30.00
2018-05-07T22:54:19.385Z,29.60
2018-05-07T22:56:47.628Z,29.60
2018-05-07T22:59:16.690Z,29.70
2018-05-07T23:01:44.919Z,29.60
2018-05-07T23:04:13.184Z,29.50
2018-05-07T23:06:41.422Z,29.70
2018-05-07T23:09:09.749Z,29.60
2018-05-07T23:11:38.075Z,29.80
2018-05-07T23:14:06.327Z,29.60
2018-05-07T23:16:34.604Z,29.70
2018-05-07T23:19:02.835Z,30.00
2018-05-07T23:21:31.109Z,29.50
2018-05-07T23:23:59.357Z,29.30
2018-05-07T23:26:28.373Z,29.50
2018-05-07T23:28:56.625Z,29.60
2018-05-07T23:31:24.874Z,29.60
2018-05-07T23:33:53.133Z,29.60
2018-05-07T23:36:21.368Z,29.60
2018-05-07T23:38:49.593Z,29.70
2018-05-07T23:41:17.889Z,29.90
2018-05-07T23:43:46.116Z,30.40
2018-05-07T23:46:15.152Z,30.40
2018-05-07T23:48:43.433Z,30.40
2018-05-07T23:51:11.681Z,30.40
2018-05-07T23:53:39.953Z,30.30
2018-05-07T23:56:08.940Z,30.30
2018-05-07T23:58:37.976Z,30.30
